Share

Ashby, NE (69333)

Alliance Municipal (KAIA) Elev 3930 ft | 42.06 °N, 102.80 °W | Change Station

Current weather conditions updated 37 minutes ago

Overcast
Overcast
38 °F
Feels Like 29 °F
N
16
Wind Variable Wind from South
Sunrise 6:04 AM
Sunset 7:31 PM
Moon Waning Gibbous

Today is forecast to be Warmer than yesterday.

Pressure 30.20 in
Visibility 10.0 miles
Clouds Overcast 1400 ft
Windchill 29 °F
Dew Point 31 °F
Humidity 76%
Rainfall 0.00 in
Snow Depth Not available.
UV 3 out of 16
Pollen 9.10 out of 12
Air Quality Not available.
Flu Activity Sporadic
METAR KAIA 171753Z AUTO 18014KT 10SM OVC014 03/M01 A3015 RMK AO2 SLP226 T00331006 10039 21006 58003

More Conditions Fewer Conditions

Pressure 30.20 in
Visibility 10.0 miles
Clouds Overcast 1400 ft
Windchill 29 °F
Dew Point 31 °F
Humidity 76%
Rainfall 0.00 in
Snow Depth Not available.
UV 3 out of 16
Pollen 9.10 out of 12
Air Quality Not available.
Flu Activity Sporadic
METAR KAIA 171753Z AUTO 18014KT 10SM OVC014 03/M01 A3015 RMK AO2 SLP226 T00331006 10039 21006 58003

More Conditions Fewer Conditions

10-Day Forecast

Almanac

Astronomy

Apr. 17, 2014 Rise Set
Actual Time 6:04 AM MDT 7:31 PM MDT
Civil Twilight 5:35 AM MDT 8:00 PM MDT
Nautical Twilight 5:00 AM MDT 8:35 PM MDT
Astronomical Twilight 4:23 AM MDT 9:12 PM MDT
Moon 10:20 PM MDT 7:36 AM MDT
Length of Visible Light 14h 25m
Length of Day
13h 26m
Tomorrow will be 2m 39s longer.
Waning Gibbous, 93% of the Moon is Illuminated
Today
Waning Gibbous
Apr 22
Last Quarter
Apr 29
New
May 6
First Quarter
May 14
Full

Today's Extremes

State Highs State Lows

Community

  • New Day
    New Day
  • Lake Michigan Sunrise
    Lake Michigan Sunrise
  • sunset from izmir, narlıdere
    sunset from izmir, narlıdere
  • oregon cherry
    oregon cherry
  • Sunset over the Bay
    Sunset over the Bay

WunderPhotos

Upload Photos

1,702,091 photos uploaded!

Nearby

Snow Depth

Station Depth Elevation
No new snow has been reported.

Coastal Water Temperatures

Place Temperature
No Stations Reporting

Earthquake Activity

City Distance Mag. Time & Date
No recent earthquake activity has been reported nearby.
Minimum magnitude displayed is 2.5.

Nearby Weather Stations

There are no personal weather stations in this area.

What do you think?

We're not finished. Please let us know what you like, what you don't like, and what you are still missing.